Love Valley, North Carolina
Current Conditions -  °F | °C
As of 12:55 PM on Thursday 23 Oct 2014 (Local Time) from KSVH Reporting Station
Clear Clear  
Wind Chill: 63°   Ceiling: Unl
Heat Index: 63°   Visibility: 10mi
Dew Point: 41°   Wind: 5mph
Humidity: 44%   Direction: 320°NW
Pressure: 30.05"   Gusts: NA
Location:  35.8306°N, 80.9003°W
Report Text: KSVH 231655Z AUTO 32004KT 10SM CLR 17/05 A3005 RMK AO2 T01720049
Loading
Personal Weather Stations






























Interactive Weather Map
Tropical Storm Tracking
New forecast layout! Learn more

10-Day Weather Forecast

Advertisements
Track Severe Weather on mobile